MET'MAP v2.0
soon released !

Expected late october,
this new version will be
more efficient, smarter,
and hosted on a brand new
server x3 powerfull...
...and still free !


Not compatible ?
Try the mobile version !

LOG IN : | Subscribe | Disclaimer | Who is Orbifly ? |
ICAO code :

TAF - LGKC Kithira - 29 Feb 2020 15:19 UTC - Data Source NOAA   


- Airport Elevation : 1045 ft
- IATA code : KIT
- No reported NOTAMs.


LGKC - Kithira

Latest METAR recorded : 2015/08/11 07:50 LGKC 110750Z /////KT CAVOK 29/20 Q1014
TAF TAF LGKC
Valid from the 29 at 12:00 until the 29 at 21:00 UTC


291100Z 2912/2921 02014KT 9999 FEW030

Source NOAA


MET'MAP, your aeronautical weather chart ! - Copyright ORBIFLY December 2007

Programming & Development : Alexandra Zaïnal
Co-Developer : Marc-Olivier Méhu
Technical & hardware support : Manuel Goepfert
Concept & Financing : Baudouin d'Aumeries